Time;durP1;ratioP1;P1;durP2;ratioP2;P2;SDS_P1;SDS_P2;PMS_P1;PMS_P2;Temp;Humidity;BMP_temperature;BMP_pressure;BME280_temperature;BME280_humidity;BME280_pressure;Samples;Min_cycle;Max_cycle;Signal;HPM_P1;HPM_P2
2022/05/11 00:00:15;;;;;;;31.00;22.48;;;;;;;;;;5054380;28;20021;-43
2022/05/11 00:02:41;;;;;;;38.60;26.90;;;;;;;;;;5074042;28;20071;-46
2022/05/11 00:05:09;;;;;;;47.20;32.47;;;;;;;;;;5072875;28;20107;-42
2022/05/11 00:07:35;;;;;;;90.25;57.60;;;;;;;;;;5073749;28;20036;-42
2022/05/11 00:10:01;;;;;;;99.72;63.40;;;;;;;;;;5073711;28;20045;-45
2022/05/11 00:12:28;;;;;;;76.85;48.70;;;;;;;;;;5073969;28;20029;-43
2022/05/11 00:14:54;;;;;;;60.67;39.65;;;;;;;;;;5073916;28;20109;-43
2022/05/11 00:17:20;;;;;;;55.85;38.20;;;;;;;;;;5068771;28;20110;-43
2022/05/11 00:19:46;;;;;;;49.08;34.78;;;;;;;;;;5053678;28;20500;-44
2022/05/11 00:22:14;;;;;;;41.13;28.80;;;;;;;;;;5053739;28;20029;-43
2022/05/11 00:24:40;;;;;;;45.75;31.63;;;;;;;;;;5053624;28;20025;-44
2022/05/11 00:27:06;;;;;;;40.38;29.02;;;;;;;;;;5053670;28;20056;-44
2022/05/11 00:29:34;;;;;;;29.90;23.13;;;;;;;;;;5053675;28;20025;-44
2022/05/11 00:32:00;;;;;;;31.23;22.42;;;;;;;;;;5053535;28;20025;-43
2022/05/11 00:34:26;;;;;;;29.75;22.00;;;;;;;;;;5053466;28;20017;-43
2022/05/11 00:36:52;;;;;;;32.63;24.42;;;;;;;;;;5053559;28;20040;-43
2022/05/11 00:39:19;;;;;;;31.23;21.75;;;;;;;;;;5053385;28;20025;-47
2022/05/11 00:41:47;;;;;;;29.15;22.30;;;;;;;;;;5053925;28;20059;-44
2022/05/11 00:44:14;;;;;;;29.40;20.48;;;;;;;;;;5053219;28;20473;-44
2022/05/11 00:47:00;;;;;;;30.90;20.35;;;;;;;;;;5053520;28;20029;-43
2022/05/11 00:49:34;;;;;;;24.95;18.48;;;;;;;;;;5053309;28;20047;-43
2022/05/11 00:52:06;;;;;;;20.75;16.52;;;;;;;;;;5053216;28;20031;-44
2022/05/11 00:54:34;;;;;;;24.27;16.95;;;;;;;;;;5053348;28;20036;-43
2022/05/11 00:57:02;;;;;;;17.90;14.40;;;;;;;;;;5053257;28;20031;-43
2022/05/11 00:59:31;;;;;;;20.10;15.20;;;;;;;;;;5053269;28;20093;-43
2022/05/11 01:02:02;;;;;;;18.55;13.80;;;;;;;;;;5053170;28;20025;-43
2022/05/11 01:04:28;;;;;;;16.77;13.52;;;;;;;;;;5053156;28;20032;-43
2022/05/11 01:06:57;;;;;;;18.23;13.55;;;;;;;;;;5052977;28;20430;-43
2022/05/11 01:09:23;;;;;;;16.85;12.65;;;;;;;;;;5054038;28;20043;-43
2022/05/11 01:11:51;;;;;;;16.17;12.70;;;;;;;;;;5057249;28;20075;-43
2022/05/11 01:14:21;;;;;;;19.20;13.70;;;;;;;;;;5057278;28;20024;-44
2022/05/11 01:16:48;;;;;;;15.10;11.88;;;;;;;;;;5057369;28;20469;-43
2022/05/11 01:19:33;;;;;;;20.45;15.05;;;;;;;;;;5057053;28;20388;-44
2022/05/11 01:22:09;;;;;;;17.77;13.07;;;;;;;;;;5057167;28;20057;-43
2022/05/11 01:24:39;;;;;;;20.90;14.82;;;;;;;;;;5057074;28;20480;-43
2022/05/11 01:27:26;;;;;;;17.77;13.32;;;;;;;;;;5056910;28;20040;-44
2022/05/11 01:29:52;;;;;;;16.45;13.27;;;;;;;;;;5056986;28;20062;-43
2022/05/11 01:32:23;;;;;;;17.17;12.95;;;;;;;;;;5057025;28;20021;-43
2022/05/11 01:34:53;;;;;;;14.73;12.60;;;;;;;;;;5056773;28;20504;-44
2022/05/11 01:37:20;;;;;;;15.77;12.52;;;;;;;;;;5056843;28;20021;-44
2022/05/11 01:39:50;;;;;;;16.45;13.57;;;;;;;;;;5056748;28;20029;-43
2022/05/11 01:42:18;;;;;;;16.25;13.05;;;;;;;;;;5038941;28;20417;-44
2022/05/11 01:44:46;;;;;;;16.20;13.15;;;;;;;;;;5056886;28;20117;-45
2022/05/11 01:47:12;;;;;;;15.95;12.30;;;;;;;;;;5056668;28;20041;-44
2022/05/11 01:49:38;;;;;;;18.02;12.82;;;;;;;;;;5056756;28;20056;-43
2022/05/11 01:52:05;;;;;;;22.42;14.52;;;;;;;;;;5056572;28;20032;-43
2022/05/11 01:54:31;;;;;;;20.38;13.57;;;;;;;;;;5056492;28;20109;-47
2022/05/11 01:57:00;;;;;;;18.90;14.23;;;;;;;;;;5056326;28;20029;-46
2022/05/11 01:59:26;;;;;;;24.48;15.05;;;;;;;;;;5056250;28;20437;-43
2022/05/11 02:01:55;;;;;;;23.92;15.13;;;;;;;;;;5056532;28;20056;-43
2022/05/11 02:09:50;;;;;;;18.17;12.90;;;;;;;;;;5056143;28;20068;-46
2022/05/11 02:12:16;;;;;;;18.98;13.20;;;;;;;;;;5056334;28;20194;-43
2022/05/11 02:14:42;;;;;;;17.13;12.52;;;;;;;;;;5056067;28;20032;-46
2022/05/11 02:17:08;;;;;;;17.40;11.80;;;;;;;;;;5055879;28;20078;-43
2022/05/11 02:19:37;;;;;;;23.23;13.60;;;;;;;;;;5055757;28;20024;-43
2022/05/11 02:22:03;;;;;;;16.65;12.10;;;;;;;;;;5056428;28;20021;-44
2022/05/11 02:24:29;;;;;;;19.02;13.63;;;;;;;;;;5055954;28;20021;-47
2022/05/11 02:26:55;;;;;;;17.02;12.07;;;;;;;;;;5055794;28;20068;-44
2022/05/11 02:29:23;;;;;;;16.02;11.85;;;;;;;;;;5055866;28;20456;-43
2022/05/11 02:31:49;;;;;;;21.80;12.23;;;;;;;;;;5055873;28;20105;-43
2022/05/11 02:35:12;;;;;;;16.58;12.60;;;;;;;;;;5055840;28;20028;-43
2022/05/11 02:37:01;;;;;;;18.08;12.40;;;;;;;;;;5055449;28;20037;-43
2022/05/11 02:39:27;;;;;;;20.17;12.40;;;;;;;;;;5055676;28;20079;-43
2022/05/11 02:41:54;;;;;;;20.38;12.65;;;;;;;;;;5055467;28;20036;-43
2022/05/11 02:44:20;;;;;;;16.50;11.32;;;;;;;;;;5055616;28;20082;-44
2022/05/11 02:46:49;;;;;;;17.40;12.13;;;;;;;;;;5055299;28;20500;-43
2022/05/11 02:49:15;;;;;;;17.17;12.38;;;;;;;;;;5055367;28;20083;-44
2022/05/11 02:51:41;;;;;;;20.00;12.82;;;;;;;;;;5055373;28;20366;-43
2022/05/11 02:54:07;;;;;;;24.92;13.75;;;;;;;;;;5055415;28;20100;-43
2022/05/11 02:56:33;;;;;;;21.73;13.90;;;;;;;;;;5055208;28;20036;-43
2022/05/11 02:58:59;;;;;;;19.02;12.95;;;;;;;;;;5055378;28;20033;-43
2022/05/11 03:01:28;;;;;;;18.30;12.65;;;;;;;;;;5037581;28;20021;-44
2022/05/11 03:03:54;;;;;;;16.88;12.88;;;;;;;;;;5055305;28;20028;-43
2022/05/11 03:06:20;;;;;;;24.48;15.23;;;;;;;;;;5055310;28;20440;-43
2022/05/11 03:08:46;;;;;;;28.08;15.40;;;;;;;;;;5054699;28;20032;-47
2022/05/11 03:11:12;;;;;;;25.48;15.13;;;;;;;;;;5054615;28;20056;-43
2022/05/11 03:13:38;;;;;;;26.83;15.85;;;;;;;;;;5055009;28;20028;-43
2022/05/11 03:16:05;;;;;;;25.17;15.73;;;;;;;;;;5055344;28;20024;-43
2022/05/11 03:18:31;;;;;;;25.00;16.10;;;;;;;;;;5055007;28;20028;-43
2022/05/11 03:21:00;;;;;;;29.20;17.45;;;;;;;;;;5054831;28;20029;-43
2022/05/11 03:23:27;;;;;;;36.17;18.23;;;;;;;;;;5054802;28;20021;-43
2022/05/11 03:25:53;;;;;;;29.00;17.40;;;;;;;;;;5054551;28;20021;-44
2022/05/11 03:28:22;;;;;;;29.00;18.98;;;;;;;;;;5054677;28;20037;-43
2022/05/11 03:30:48;;;;;;;28.95;17.02;;;;;;;;;;5054699;28;20405;-43
2022/05/11 03:35:58;;;;;;;23.50;15.65;;;;;;;;;;5054555;28;20036;-43
2022/05/11 03:38:24;;;;;;;22.52;14.43;;;;;;;;;;5054897;28;20567;-44
2022/05/11 03:40:50;;;;;;;24.02;15.60;;;;;;;;;;5054280;28;20056;-44
2022/05/11 03:43:16;;;;;;;21.48;14.27;;;;;;;;;;5054330;28;20024;-42
2022/05/11 03:45:42;;;;;;;20.88;14.80;;;;;;;;;;5054413;28;20039;-46
2022/05/11 03:48:16;;;;;;;15.45;12.05;;;;;;;;;;5054287;28;20044;-43
2022/05/11 03:50:42;;;;;;;19.40;12.88;;;;;;;;;;5054157;28;20074;-47
2022/05/11 03:53:08;;;;;;;15.35;11.70;;;;;;;;;;5054451;28;20096;-47
2022/05/11 03:55:34;;;;;;;17.33;11.20;;;;;;;;;;5054249;28;20025;-45
2022/05/11 03:58:01;;;;;;;18.02;12.68;;;;;;;;;;5054161;28;20101;-47
2022/05/11 04:00:27;;;;;;;15.43;11.75;;;;;;;;;;5053863;28;20028;-45
2022/05/11 04:02:56;;;;;;;16.95;12.10;;;;;;;;;;5054180;28;20052;-43
2022/05/11 04:05:22;;;;;;;14.23;11.68;;;;;;;;;;5054022;28;20021;-47
2022/05/11 04:07:49;;;;;;;19.27;12.50;;;;;;;;;;5053900;28;20473;-43
2022/05/11 04:10:16;;;;;;;15.02;10.93;;;;;;;;;;5053698;28;20128;-44
2022/05/11 04:12:42;;;;;;;16.02;12.18;;;;;;;;;;5053767;28;20033;-46
2022/05/11 04:15:09;;;;;;;15.60;11.25;;;;;;;;;;5053952;28;20024;-47
2022/05/11 04:17:42;;;;;;;15.20;11.43;;;;;;;;;;5053868;28;20017;-45
2022/05/11 04:20:09;;;;;;;15.02;10.60;;;;;;;;;;5053669;28;20025;-45
2022/05/11 04:22:35;;;;;;;17.88;11.77;;;;;;;;;;5053680;28;20052;-43
2022/05/11 04:25:01;;;;;;;13.80;11.18;;;;;;;;;;5053772;28;20032;-44
2022/05/11 04:27:29;;;;;;;14.65;11.25;;;;;;;;;;5053662;28;20477;-44
2022/05/11 04:29:55;;;;;;;15.63;10.52;;;;;;;;;;5035968;28;20025;-45
2022/05/11 04:32:21;;;;;;;19.83;11.95;;;;;;;;;;5053646;28;20432;-43
2022/05/11 04:34:47;;;;;;;29.15;17.83;;;;;;;;;;5053370;28;20021;-45
2022/05/11 04:37:14;;;;;;;27.23;16.10;;;;;;;;;;5053215;28;20025;-44
2022/05/11 04:39:40;;;;;;;19.13;13.07;;;;;;;;;;5053417;28;20033;-43
2022/05/11 04:42:10;;;;;;;15.32;10.98;;;;;;;;;;5053243;28;20381;-44
2022/05/11 04:44:36;;;;;;;22.83;14.80;;;;;;;;;;5052588;28;20040;-43
2022/05/11 04:47:07;;;;;;;53.08;33.47;;;;;;;;;;5053189;28;20110;-42
2022/05/11 04:49:33;;;;;;;39.13;24.42;;;;;;;;;;5053052;28;20035;-45
2022/05/11 04:52:01;;;;;;;30.90;19.05;;;;;;;;;;5052919;28;20548;-46
2022/05/11 04:54:27;;;;;;;22.52;15.82;;;;;;;;;;5052286;28;20465;-43
2022/05/11 04:56:53;;;;;;;21.58;13.65;;;;;;;;;;5052835;28;20033;-43
2022/05/11 04:59:21;;;;;;;18.17;13.95;;;;;;;;;;5053221;28;20021;-43
2022/05/11 05:01:47;;;;;;;16.35;10.73;;;;;;;;;;5052997;28;20032;-43
2022/05/11 05:04:15;;;;;;;20.45;14.38;;;;;;;;;;5052974;28;20033;-42
2022/05/11 05:06:41;;;;;;;14.02;10.02;;;;;;;;;;5052845;28;20434;-43
2022/05/11 05:09:08;;;;;;;13.98;11.07;;;;;;;;;;5052972;28;20037;-44
2022/05/11 05:11:35;;;;;;;18.55;12.77;;;;;;;;;;5052733;28;20041;-43
2022/05/11 05:14:04;;;;;;;13.63;10.10;;;;;;;;;;5053025;28;20017;-45
2022/05/11 05:16:30;;;;;;;14.07;11.63;;;;;;;;;;5052854;28;20029;-43
2022/05/11 05:18:56;;;;;;;14.63;10.25;;;;;;;;;;5053172;28;20050;-43
2022/05/11 05:21:23;;;;;;;14.63;10.43;;;;;;;;;;5053016;28;20025;-45
2022/05/11 05:23:49;;;;;;;13.68;10.10;;;;;;;;;;5053177;28;20070;-43
2022/05/11 05:26:15;;;;;;;12.75;10.18;;;;;;;;;;5053421;28;20482;-42
2022/05/11 05:31:28;;;;;;;12.70;10.02;;;;;;;;;;5053278;28;20029;-45
2022/05/11 05:33:58;;;;;;;16.52;12.30;;;;;;;;;;5052899;28;20405;-43
2022/05/11 05:36:24;;;;;;;19.77;12.20;;;;;;;;;;5053062;28;20047;-42
2022/05/11 05:38:50;;;;;;;21.73;11.18;;;;;;;;;;5053111;28;20028;-42
2022/05/11 05:41:16;;;;;;;14.68;10.82;;;;;;;;;;5052758;28;20032;-42
2022/05/11 05:43:42;;;;;;;19.40;11.52;;;;;;;;;;5052867;28;20071;-43
2022/05/11 05:46:11;;;;;;;15.07;11.30;;;;;;;;;;5052953;28;20025;-43
2022/05/11 05:48:38;;;;;;;21.45;12.77;;;;;;;;;;5052790;28;20040;-43
2022/05/11 05:51:08;;;;;;;19.27;14.15;;;;;;;;;;5052894;28;20090;-43
2022/05/11 05:53:35;;;;;;;17.45;14.77;;;;;;;;;;5052755;28;20025;-43
2022/05/11 05:56:01;;;;;;;19.60;15.38;;;;;;;;;;5054811;28;20029;-42
2022/05/11 05:58:27;;;;;;;23.27;16.05;;;;;;;;;;5056566;28;20087;-43
2022/05/11 06:00:54;;;;;;;21.35;14.60;;;;;;;;;;5056413;28;20377;-42
2022/05/11 06:03:24;;;;;;;17.77;14.60;;;;;;;;;;5056427;28;20022;-42
2022/05/11 06:05:50;;;;;;;21.80;14.35;;;;;;;;;;5056670;28;20158;-43
2022/05/11 06:08:16;;;;;;;17.63;11.45;;;;;;;;;;5056204;28;20076;-43
2022/05/11 06:10:43;;;;;;;19.77;12.60;;;;;;;;;;5055860;28;20041;-42
2022/05/11 06:13:10;;;;;;;12.43;9.95;;;;;;;;;;5056329;28;20043;-42
2022/05/11 06:15:39;;;;;;;15.35;11.07;;;;;;;;;;5056481;28;20354;-42
2022/05/11 06:18:08;;;;;;;12.73;10.90;;;;;;;;;;5056213;28;20082;-44
2022/05/11 06:20:34;;;;;;;14.95;10.77;;;;;;;;;;5056185;28;20028;-43
2022/05/11 06:23:03;;;;;;;16.58;11.57;;;;;;;;;;5056132;28;20025;-42
2022/05/11 06:25:29;;;;;;;17.00;11.23;;;;;;;;;;5055783;28;20424;-42
2022/05/11 06:27:56;;;;;;;22.60;14.85;;;;;;;;;;5055798;28;20043;-43
2022/05/11 06:30:22;;;;;;;20.15;12.30;;;;;;;;;;5055786;28;20125;-43
2022/05/11 06:32:48;;;;;;;21.27;13.18;;;;;;;;;;5055874;28;20036;-45
2022/05/11 06:35:15;;;;;;;19.55;12.05;;;;;;;;;;5055932;28;20481;-46
2022/05/11 06:37:41;;;;;;;16.42;11.82;;;;;;;;;;5056014;28;20021;-42
2022/05/11 06:40:08;;;;;;;20.65;15.05;;;;;;;;;;5055752;28;20025;-43
2022/05/11 06:42:34;;;;;;;28.88;17.85;;;;;;;;;;5055747;28;20033;-42
2022/05/11 06:45:00;;;;;;;18.90;12.32;;;;;;;;;;5055741;28;20381;-44
2022/05/11 06:47:26;;;;;;;17.58;12.18;;;;;;;;;;5055244;28;20033;-43
2022/05/11 06:49:52;;;;;;;13.98;11.68;;;;;;;;;;5037719;28;20040;-44
2022/05/11 06:52:18;;;;;;;13.07;11.68;;;;;;;;;;5055506;28;20079;-44
2022/05/11 07:00:14;;;;;;;20.88;11.80;;;;;;;;;;5055802;28;20039;-44
2022/05/11 07:02:40;;;;;;;16.98;12.02;;;;;;;;;;5055504;28;20048;-43
2022/05/11 07:05:10;;;;;;;15.77;11.57;;;;;;;;;;5055131;28;20029;-43
2022/05/11 07:07:36;;;;;;;13.77;11.10;;;;;;;;;;5054445;28;20032;-43
2022/05/11 07:10:03;;;;;;;11.25;10.05;;;;;;;;;;5054990;28;20041;-43
2022/05/11 07:12:35;;;;;;;12.75;10.13;;;;;;;;;;5054893;28;20378;-43
2022/05/11 07:15:01;;;;;;;13.10;10.07;;;;;;;;;;5055140;28;20029;-43
2022/05/11 07:17:28;;;;;;;19.25;14.60;;;;;;;;;;5055138;28;20384;-46
2022/05/11 07:19:54;;;;;;;12.23;10.45;;;;;;;;;;5055043;28;20032;-43
2022/05/11 07:22:20;;;;;;;12.75;10.70;;;;;;;;;;5054929;28;20021;-45
2022/05/11 07:24:46;;;;;;;13.50;10.75;;;;;;;;;;5054719;28;20462;-43
2022/05/11 07:27:12;;;;;;;18.05;11.07;;;;;;;;;;5054602;28;20024;-43
2022/05/11 07:29:38;;;;;;;16.38;10.68;;;;;;;;;;5054722;28;20024;-42
2022/05/11 07:32:06;;;;;;;17.45;10.32;;;;;;;;;;5054780;28;20025;-44
2022/05/11 07:34:33;;;;;;;14.65;10.68;;;;;;;;;;5054627;28;20047;-42
2022/05/11 07:36:59;;;;;;;11.38;10.18;;;;;;;;;;5054583;28;20435;-44
2022/05/11 07:39:25;;;;;;;16.88;9.43;;;;;;;;;;5054606;28;20036;-43
2022/05/11 07:41:51;;;;;;;14.35;10.63;;;;;;;;;;5054244;28;20083;-43
2022/05/11 07:44:18;;;;;;;15.10;11.07;;;;;;;;;;5054357;28;20059;-45
2022/05/11 07:46:44;;;;;;;14.02;11.25;;;;;;;;;;5054738;28;20017;-43
2022/05/11 07:49:11;;;;;;;15.85;10.73;;;;;;;;;;5054445;28;20041;-43
2022/05/11 07:51:37;;;;;;;11.80;10.27;;;;;;;;;;5054332;28;20477;-44
2022/05/11 07:54:04;;;;;;;14.30;11.43;;;;;;;;;;5054188;28;20045;-42
2022/05/11 08:02:00;;;;;;;9.82;6.82;;;;;;;;;;5054210;28;20087;-43
2022/05/11 08:04:26;;;;;;;7.22;6.50;;;;;;;;;;5054087;28;20098;-43
2022/05/11 08:06:52;;;;;;;9.48;6.60;;;;;;;;;;5054136;28;20017;-43
2022/05/11 08:09:18;;;;;;;12.85;9.85;;;;;;;;;;5053691;28;20032;-43
2022/05/11 08:11:47;;;;;;;11.77;9.35;;;;;;;;;;5053820;28;20079;-44
2022/05/11 08:14:14;;;;;;;7.78;6.13;;;;;;;;;;5053971;28;20389;-43
2022/05/11 08:16:40;;;;;;;12.88;7.60;;;;;;;;;;5053980;28;20032;-48
2022/05/11 08:19:07;;;;;;;14.48;8.23;;;;;;;;;;5053838;28;20484;-43
2022/05/11 08:21:36;;;;;;;11.07;7.85;;;;;;;;;;5053662;28;20458;-44
2022/05/11 08:24:02;;;;;;;9.85;8.85;;;;;;;;;;5053600;28;20045;-43
2022/05/11 08:26:28;;;;;;;12.35;9.88;;;;;;;;;;5053581;28;20029;-43
2022/05/11 08:28:55;;;;;;;12.75;10.15;;;;;;;;;;5053516;28;20034;-43
2022/05/11 08:34:06;;;;;;;16.80;12.35;;;;;;;;;;5053647;28;20039;-43
2022/05/11 08:36:32;;;;;;;19.35;12.57;;;;;;;;;;5053633;28;20115;-43
2022/05/11 08:39:00;;;;;;;12.98;7.90;;;;;;;;;;5053545;28;20513;-44
2022/05/11 08:41:34;;;;;;;9.48;6.80;;;;;;;;;;5053289;28;20025;-44
2022/05/11 08:44:03;;;;;;;10.43;7.60;;;;;;;;;;5053249;28;20033;-45
2022/05/11 08:46:43;;;;;;;13.77;7.70;;;;;;;;;;5053312;28;20021;-44
2022/05/11 08:49:09;;;;;;;;;;;;;;;;;;5053529;28;20082;-44
2022/05/11 08:51:40;;;;;;;10.57;8.57;;;;;;;;;;5053270;28;20319;-45
2022/05/11 08:54:13;;;;;;;12.75;7.05;;;;;;;;;;5053406;28;20544;-44
2022/05/11 08:56:40;;;;;;;12.60;7.28;;;;;;;;;;5053302;28;20053;-44
2022/05/11 08:59:07;;;;;;;11.75;8.55;;;;;;;;;;5053539;28;20032;-45
2022/05/11 09:01:49;;;;;;;9.10;7.28;;;;;;;;;;5053147;28;20025;-45
2022/05/11 09:04:17;;;;;;;15.32;10.32;;;;;;;;;;5035213;28;20079;-45
2022/05/11 09:06:45;;;;;;;17.83;10.38;;;;;;;;;;5053176;28;20030;-45
2022/05/11 09:09:12;;;;;;;21.55;14.50;;;;;;;;;;5053023;28;20041;-45
2022/05/11 09:11:41;;;;;;;10.52;6.68;;;;;;;;;;5053109;28;20033;-46
2022/05/11 09:14:11;;;;;;;6.75;4.18;;;;;;;;;;5053084;28;20029;-45
2022/05/11 09:16:37;;;;;;;6.32;4.45;;;;;;;;;;5053029;28;20100;-46
2022/05/11 09:19:10;;;;;;;11.63;8.35;;;;;;;;;;5053082;28;20109;-45
2022/05/11 09:21:37;;;;;;;9.32;5.82;;;;;;;;;;5052906;28;20032;-45
2022/05/11 09:24:08;;;;;;;8.95;6.70;;;;;;;;;;5053231;28;20021;-46
2022/05/11 09:26:36;;;;;;;21.33;13.70;;;;;;;;;;5052980;28;20017;-45
2022/05/11 09:29:16;;;;;;;13.90;8.80;;;;;;;;;;5052809;28;20120;-46
2022/05/11 09:31:44;;;;;;;16.38;10.32;;;;;;;;;;5056707;28;20021;-46
2022/05/11 09:34:12;;;;;;;15.73;9.55;;;;;;;;;;5056814;28;20029;-46
2022/05/11 09:36:45;;;;;;;7.60;5.05;;;;;;;;;;5056873;28;20056;-46
2022/05/11 09:39:14;;;;;;;9.70;6.40;;;;;;;;;;5057176;28;20515;-47
2022/05/11 09:41:45;;;;;;;20.08;9.88;;;;;;;;;;5056659;28;20542;-45
2022/05/11 09:44:19;;;;;;;10.05;6.85;;;;;;;;;;5056782;28;20433;-46
2022/05/11 09:46:45;;;;;;;24.48;14.57;;;;;;;;;;5056953;28;20049;-46
2022/05/11 09:49:24;;;;;;;17.33;10.25;;;;;;;;;;5057078;28;20063;-45
2022/05/11 09:51:54;;;;;;;32.85;18.35;;;;;;;;;;5056517;28;20109;-45
2022/05/11 09:54:38;;;;;;;20.77;11.43;;;;;;;;;;5056442;28;20104;-46
2022/05/11 09:57:04;;;;;;;10.55;5.85;;;;;;;;;;5056630;28;20021;-46
2022/05/11 09:59:45;;;;;;;5.88;2.92;;;;;;;;;;5056581;28;20021;-44
2022/05/11 10:02:20;;;;;;;5.47;2.38;;;;;;;;;;5056706;28;20053;-46
2022/05/11 10:05:01;;;;;;;25.30;11.60;;;;;;;;;;5056264;28;20112;-45
2022/05/11 10:07:28;;;;;;;9.65;5.43;;;;;;;;;;5056180;28;20098;-44
2022/05/11 10:10:00;;;;;;;5.60;3.35;;;;;;;;;;5056257;28;20044;-45
2022/05/11 10:12:28;;;;;;;11.68;7.13;;;;;;;;;;5056297;28;20032;-46
2022/05/11 10:23:45;;;;;;;8.98;4.85;;;;;;;;;;5056772;28;20163;-46
2022/05/11 10:26:19;;;;;;;6.25;2.92;;;;;;;;;;5033596;28;20037;-44
2022/05/11 10:28:45;;;;;;;10.18;5.63;;;;;;;;;;5055934;28;20041;-46
2022/05/11 10:31:26;;;;;;;5.72;3.20;;;;;;;;;;5055718;28;20075;-44
2022/05/11 10:33:59;;;;;;;12.27;3.65;;;;;;;;;;5054753;28;20481;-45
2022/05/11 10:36:43;;;;;;;5.55;2.42;;;;;;;;;;5055503;28;20052;-46
2022/05/11 10:39:28;;;;;;;9.27;5.93;;;;;;;;;;5055746;28;20033;-45
2022/05/11 10:42:13;;;;;;;8.10;4.55;;;;;;;;;;5055922;28;20481;-45
2022/05/11 10:44:58;;;;;;;5.82;4.00;;;;;;;;;;5050831;28;20033;-45
2022/05/11 10:47:45;;;;;;;9.27;5.63;;;;;;;;;;5025798;28;20043;-44
2022/05/11 10:50:13;;;;;;;7.38;3.55;;;;;;;;;;4967326;28;20046;-45
2022/05/11 10:52:57;;;;;;;10.73;3.58;;;;;;;;;;4966752;28;20093;-44
2022/05/11 10:55:25;;;;;;;3.53;2.58;;;;;;;;;;4966880;28;20065;-44
2022/05/11 10:57:51;;;;;;;5.20;2.53;;;;;;;;;;4965781;28;20034;-45
2022/05/11 11:00:19;;;;;;;6.80;4.43;;;;;;;;;;4967062;28;20026;-45
2022/05/11 11:02:47;;;;;;;9.73;3.85;;;;;;;;;;4966621;28;20022;-45
2022/05/11 11:05:22;;;;;;;3.70;2.58;;;;;;;;;;4966983;28;20030;-46
2022/05/11 11:07:52;;;;;;;6.72;3.28;;;;;;;;;;4966657;28;20573;-45
2022/05/11 11:10:18;;;;;;;7.57;4.10;;;;;;;;;;4966638;28;20573;-45
2022/05/11 11:13:00;;;;;;;7.30;3.60;;;;;;;;;;4952900;28;20674;-44
2022/05/11 11:15:28;;;;;;;7.53;5.28;;;;;;;;;;4966497;28;20376;-44
2022/05/11 11:17:55;;;;;;;7.38;3.50;;;;;;;;;;4967023;28;20046;-44
2022/05/11 11:20:22;;;;;;;11.95;6.47;;;;;;;;;;4965934;28;20042;-44
2022/05/11 11:23:22;;;;;;;7.22;4.88;;;;;;;;;;4965765;28;20521;-44
2022/05/11 11:25:54;;;;;;;4.85;3.08;;;;;;;;;;4910240;29;20379;-43
2022/05/11 11:28:22;;;;;;;4.13;2.10;;;;;;;;;;4955119;28;20506;-43
2022/05/11 11:31:00;;;;;;;2.75;2.10;;;;;;;;;;4958978;28;20034;-44
2022/05/11 11:33:26;;;;;;;2.92;2.20;;;;;;;;;;4959687;28;20594;-43
2022/05/11 11:35:52;;;;;;;4.72;3.30;;;;;;;;;;4959670;28;20483;-44
2022/05/11 11:38:30;;;;;;;15.30;6.85;;;;;;;;;;4959320;28;20537;-43
2022/05/11 11:41:14;;;;;;;4.63;3.10;;;;;;;;;;4959040;28;20041;-43
2022/05/11 11:43:41;;;;;;;7.60;4.07;;;;;;;;;;4959610;28;20082;-44
2022/05/11 11:46:08;;;;;;;5.85;4.00;;;;;;;;;;4959495;28;20227;-44
2022/05/11 11:48:35;;;;;;;4.75;2.22;;;;;;;;;;4959663;28;20794;-44
2022/05/11 11:51:03;;;;;;;9.23;4.28;;;;;;;;;;4959681;28;20451;-45
2022/05/11 11:53:36;;;;;;;11.35;6.55;;;;;;;;;;4959302;28;20038;-44
2022/05/11 11:56:20;;;;;;;6.75;2.85;;;;;;;;;;4959049;28;20267;-43
2022/05/11 11:58:47;;;;;;;8.98;3.13;;;;;;;;;;4959488;28;20039;-44
2022/05/11 12:01:16;;;;;;;4.57;3.05;;;;;;;;;;4985292;28;20436;-44
2022/05/11 12:03:53;;;;;;;6.28;3.13;;;;;;;;;;5023524;28;20021;-44
2022/05/11 12:15:03;;;;;;;5.47;2.45;;;;;;;;;;5022070;28;20044;-44
2022/05/11 12:17:34;;;;;;;8.40;2.22;;;;;;;;;;5022879;28;20500;-44
2022/05/11 12:20:06;;;;;;;5.35;2.63;;;;;;;;;;5023046;28;20465;-45
2022/05/11 12:22:32;;;;;;;6.43;2.90;;;;;;;;;;5022679;28;20024;-43
2022/05/11 12:25:02;;;;;;;5.30;2.38;;;;;;;;;;5022769;28;20473;-45
2022/05/11 12:27:33;;;;;;;2.60;1.85;;;;;;;;;;5022451;28;20021;-44
2022/05/11 12:29:59;;;;;;;;;;;;;;;;;;5023015;28;20029;-44
2022/05/11 12:32:25;;;;;;;3.63;1.80;;;;;;;;;;5022865;28;19916;-43
2022/05/11 12:34:51;;;;;;;3.15;2.03;;;;;;;;;;5022742;28;20059;-45
2022/05/11 12:37:27;;;;;;;4.95;2.10;;;;;;;;;;5022393;28;20029;-46
2022/05/11 12:40:06;;;;;;;6.55;2.63;;;;;;;;;;5022355;28;20037;-45
2022/05/11 12:42:34;;;;;;;5.95;2.75;;;;;;;;;;5022274;28;20028;-45
2022/05/11 12:45:01;;;;;;;3.72;2.10;;;;;;;;;;5022320;28;20073;-44
2022/05/11 12:47:28;;;;;;;3.10;2.28;;;;;;;;;;5022105;28;20048;-45
2022/05/11 12:49:54;;;;;;;6.85;2.58;;;;;;;;;;5022504;28;20033;-44
2022/05/11 12:52:20;;;;;;;4.53;2.13;;;;;;;;;;5022033;28;20032;-46
2022/05/11 12:54:57;;;;;;;2.72;1.92;;;;;;;;;;5022818;28;20036;-45
2022/05/11 12:57:28;;;;;;;3.50;1.75;;;;;;;;;;5021988;28;20013;-45
2022/05/11 12:59:55;;;;;;;4.70;2.17;;;;;;;;;;5022407;28;20035;-45
2022/05/11 13:02:26;;;;;;;8.43;2.30;;;;;;;;;;5022861;28;20195;-44
2022/05/11 13:04:52;;;;;;;5.05;2.30;;;;;;;;;;5023581;28;20114;-46
2022/05/11 13:07:21;;;;;;;15.02;9.50;;;;;;;;;;5027411;28;20029;-44
2022/05/11 13:09:50;;;;;;;15.13;11.48;;;;;;;;;;5026881;28;20076;-44
2022/05/11 13:12:17;;;;;;;8.43;5.22;;;;;;;;;;5027018;28;20038;-44
2022/05/11 13:14:48;;;;;;;6.32;3.05;;;;;;;;;;5027373;28;20136;-45
2022/05/11 13:17:27;;;;;;;5.80;3.38;;;;;;;;;;5026812;28;20079;-46
2022/05/11 13:19:55;;;;;;;6.72;5.22;;;;;;;;;;5026792;28;20029;-47
2022/05/11 13:22:22;;;;;;;6.28;1.90;;;;;;;;;;5026699;28;20029;-44
2022/05/11 13:24:56;;;;;;;5.32;2.47;;;;;;;;;;5026811;28;20028;-45
2022/05/11 13:27:48;;;;;;;5.22;2.08;;;;;;;;;;5026739;28;20114;-45
2022/05/11 13:30:21;;;;;;;25.20;15.75;;;;;;;;;;5026944;28;20100;-46
2022/05/11 13:32:47;;;;;;;8.27;2.92;;;;;;;;;;5027017;28;20017;-45
2022/05/11 13:35:35;;;;;;;4.53;2.20;;;;;;;;;;5027081;28;20382;-45
2022/05/11 13:38:04;;;;;;;5.10;2.13;;;;;;;;;;5026594;28;20667;-46
2022/05/11 13:40:32;;;;;;;24.85;17.73;;;;;;;;;;5026480;28;20036;-45
2022/05/11 13:42:59;;;;;;;5.60;3.28;;;;;;;;;;5026536;28;20064;-45
2022/05/11 13:45:25;;;;;;;17.25;7.78;;;;;;;;;;5026144;28;20714;-45
2022/05/11 13:50:39;;;;;;;34.25;23.30;;;;;;;;;;5027163;28;20390;-45
2022/05/11 13:53:11;;;;;;;10.45;5.40;;;;;;;;;;5008217;28;20207;-44
2022/05/11 13:55:39;;;;;;;17.05;9.77;;;;;;;;;;5026762;28;20140;-45
2022/05/11 13:58:26;;;;;;;8.30;3.60;;;;;;;;;;5025845;28;20037;-45
2022/05/11 14:00:54;;;;;;;12.07;5.80;;;;;;;;;;5025850;28;20029;-45
2022/05/11 14:03:22;;;;;;;4.82;2.20;;;;;;;;;;5026384;28;20032;-45
2022/05/11 14:05:49;;;;;;;8.27;4.95;;;;;;;;;;5026068;28;20025;-44
2022/05/11 14:08:15;;;;;;;10.82;7.20;;;;;;;;;;5025692;28;20033;-45
2022/05/11 14:10:41;;;;;;;35.40;20.73;;;;;;;;;;5026103;28;20128;-45
2022/05/11 14:13:07;;;;;;;17.45;12.07;;;;;;;;;;5026544;28;20025;-45
2022/05/11 14:15:33;;;;;;;6.93;4.40;;;;;;;;;;5026266;28;20442;-45
2022/05/11 14:17:59;;;;;;;3.30;2.00;;;;;;;;;;5025740;28;20128;-46
2022/05/11 14:20:26;;;;;;;6.93;2.05;;;;;;;;;;5026013;28;20181;-46
2022/05/11 14:22:53;;;;;;;6.63;2.40;;;;;;;;;;5025577;28;20031;-45
2022/05/11 14:25:19;;;;;;;2.50;1.52;;;;;;;;;;5025497;28;20056;-45
2022/05/11 14:27:48;;;;;;;3.95;1.52;;;;;;;;;;5025183;28;20025;-45
2022/05/11 14:30:14;;;;;;;4.72;2.10;;;;;;;;;;5025543;28;20025;-45
2022/05/11 14:32:43;;;;;;;17.40;8.48;;;;;;;;;;5025821;28;20036;-45
2022/05/11 14:35:10;;;;;;;47.15;31.92;;;;;;;;;;5025950;28;20029;-45
2022/05/11 14:37:37;;;;;;;110.82;75.75;;;;;;;;;;5025640;28;20120;-45
2022/05/11 14:40:04;;;;;;;72.45;43.75;;;;;;;;;;5005533;28;21679;-45
2022/05/11 14:42:34;;;;;;;14.20;8.27;;;;;;;;;;5024889;28;20044;-44
2022/05/11 14:45:00;;;;;;;11.27;8.03;;;;;;;;;;5024856;28;20335;-45
2022/05/11 14:47:29;;;;;;;131.68;75.03;;;;;;;;;;5024413;28;20318;-44
2022/05/11 14:49:55;;;;;;;25.92;14.77;;;;;;;;;;5024716;28;20043;-44
2022/05/11 14:52:21;;;;;;;6.93;4.90;;;;;;;;;;5024093;28;20048;-44
2022/05/11 14:54:50;;;;;;;23.38;14.20;;;;;;;;;;5025297;28;20032;-44
2022/05/11 15:02:45;;;;;;;25.95;18.35;;;;;;;;;;5025523;28;20123;-44
2022/05/11 15:05:15;;;;;;;12.55;7.63;;;;;;;;;;5025362;28;20029;-44
2022/05/11 15:07:41;;;;;;;5.90;4.07;;;;;;;;;;5024672;28;20112;-43
2022/05/11 15:10:08;;;;;;;4.72;2.47;;;;;;;;;;5025195;28;20539;-44
2022/05/11 15:15:19;;;;;;;23.02;15.25;;;;;;;;;;5025234;28;20122;-43
2022/05/11 15:17:45;;;;;;;95.00;62.20;;;;;;;;;;5024445;28;20398;-43
2022/05/11 15:20:13;;;;;;;70.15;41.97;;;;;;;;;;5025104;28;20035;-44
2022/05/11 15:22:39;;;;;;;17.63;10.15;;;;;;;;;;5025135;28;20103;-44
2022/05/11 15:25:06;;;;;;;3.95;2.78;;;;;;;;;;5024567;28;20025;-47
2022/05/11 15:27:32;;;;;;;31.73;20.92;;;;;;;;;;5023795;28;20025;-44